In Rescue
 
Open Full Screen Window  High Contrast Mode
Wind Gusting 00 knots
03
July 10, 2020 12:45 PM CDT
Weather Information
Wind Direction
  340 °
Wind Speed
  03 kt (3 mph)
Wind Gust
  00 kt (0 mph)
Altimeter
29.99 in
Visibility
10 SM
Temperature
23° C
73° F
Dewpoint
14° C
57° F
Humidity
57%
1hr Rain Fall
00.00 in.
24hr Rain Fall
00.00 in.
Sky Condition
Clear
VFR

METAR KPWC 101745Z AUTO 34003KT 10SM CLR 23/14 A2999 RMK AO2

FAA Disclaimer: The data displayed is for advisory purposes only and is not to be used for flight planning or operations.